Time;durP1;ratioP1;P1;durP2;ratioP2;P2;SDS_P1;SDS_P2;PMS_P1;PMS_P2;Temp;Humidity;BMP_temperature;BMP_pressure;BME280_temperature;BME280_humidity;BME280_pressure;Samples;Min_cycle;Max_cycle;Signal;HPM_P1;HPM_P2
2023/01/11 00:00:46;;;;;;;;;2.50;1.00;;;;;13.45;74.81;101149.06;1986945;28;2731516;-78
2023/01/11 00:01:59;;;;;;;;;1.33;1.00;;;;;13.45;74.70;101151.72;2012183;28;2729438;-78
2023/01/11 00:03:13;;;;;;;;;1.00;1.00;;;;;13.46;74.80;101147.25;2013522;28;2722137;-78
2023/01/11 00:04:29;;;;;;;;;1.17;0.17;;;;;13.47;74.71;101149.00;2013896;28;2725278;-78
2023/01/11 00:05:43;;;;;;;;;1.00;0.50;;;;;13.47;75.07;101141.94;1982098;28;2735671;-78
2023/01/11 00:06:56;;;;;;;;;2.00;1.00;;;;;13.47;74.92;101141.94;1985721;28;2737762;-78
2023/01/11 00:08:10;;;;;;;;;1.00;0.00;;;;;13.49;74.58;101140.09;1990927;28;2725278;-78
2023/01/11 00:09:23;;;;;;;;;0.00;0.00;;;;;13.49;74.64;101142.72;1998403;28;2721099;-78
2023/01/11 00:10:37;;;;;;;;;2.50;2.00;;;;;13.49;74.45;101134.81;2019023;28;2738824;-78
2023/01/11 00:11:51;;;;;;;;;1.33;0.83;;;;;13.50;74.77;101141.84;1990137;28;2726800;-78
2023/01/11 00:13:04;;;;;;;;;0.17;0.17;;;;;13.50;74.61;101139.19;1989874;28;2727374;-78
2023/01/11 00:14:17;;;;;;;;;1.17;0.83;;;;;13.50;74.76;101136.56;2013783;28;2726324;-78
2023/01/11 00:15:31;;;;;;;;;0.33;0.33;;;;;13.52;74.64;101132.97;1987226;28;2721564;-78
2023/01/11 00:16:44;;;;;;;;;1.00;1.00;;;;;13.52;74.81;101133.84;2008924;28;2740895;-78
2023/01/11 00:17:57;;;;;;;;;1.17;1.00;;;;;13.52;74.59;101131.19;1997392;28;2733604;-77
2023/01/11 00:19:11;;;;;;;;;2.67;2.00;;;;;13.54;74.54;101141.69;1995903;28;2744039;-78
2023/01/11 00:20:24;;;;;;;;;2.33;1.00;;;;;13.54;74.59;101141.69;1989711;28;2731532;-78
2023/01/11 00:21:37;;;;;;;;;2.33;0.50;;;;;13.55;74.73;101140.78;2013381;28;2725302;-78
2023/01/11 00:22:50;;;;;;;;;1.00;1.00;;;;;13.55;74.57;101140.78;1990147;28;2729448;-77
2023/01/11 00:24:04;;;;;;;;;1.00;1.00;;;;;13.54;74.57;101150.47;2013222;28;2738242;-77
2023/01/11 00:25:17;;;;;;;;;2.00;0.83;;;;;13.54;74.72;101131.13;2020154;28;2735694;-77
2023/01/11 00:26:31;;;;;;;;;0.67;0.67;;;;;13.54;74.46;101142.56;1996879;28;2729488;-78
2023/01/11 00:27:46;;;;;;;;;1.83;1.00;;;;;13.54;75.13;101136.41;1990132;28;2733592;-77
2023/01/11 00:28:59;;;;;;;;;1.00;1.00;;;;;13.52;74.83;101133.84;1989024;28;2728395;-77
2023/01/11 00:30:12;;;;;;;;;1.83;1.50;;;;;13.54;74.99;101139.03;1990295;28;2731520;-77
2023/01/11 00:31:25;;;;;;;;;2.00;1.17;;;;;13.54;74.86;101129.34;1989835;28;2728938;-78
2023/01/11 00:32:39;;;;;;;;;1.33;0.50;;;;;13.55;74.93;101127.56;1989692;28;2724237;-77
2023/01/11 00:33:52;;;;;;;;;0.00;0.00;;;;;13.55;74.83;101135.50;2012365;28;2725259;-78
2023/01/11 00:35:05;;;;;;;;;0.50;0.50;;;;;13.53;75.08;101132.91;2013896;28;2720061;-79
2023/01/11 00:36:19;;;;;;;;;1.00;1.00;;;;;13.54;75.04;101129.34;2012667;28;2733612;-78
2023/01/11 00:37:32;;;;;;;;;1.00;0.67;;;;;13.55;74.95;101132.84;1989725;28;2725251;-78
2023/01/11 00:38:50;;;;;;;;;0.83;0.83;;;;;13.53;75.10;101130.25;1989187;28;2732550;-78
2023/01/11 00:40:03;;;;;;;;;1.67;1.00;;;;;13.53;74.98;101126.78;1990156;28;2722125;-78
2023/01/11 00:48:57;;;;;;;;;0.67;0.00;;;;;13.50;75.35;101115.41;2012452;28;2725295;-79
2023/01/11 00:50:10;;;;;;;;;1.00;1.00;;;;;13.52;75.34;101125.03;2008080;28;2725266;-78
2023/01/11 00:51:24;;;;;;;;;2.17;1.00;;;;;13.50;75.07;101115.41;2012825;28;2727338;-78
2023/01/11 00:52:37;;;;;;;;;1.33;0.50;;;;;13.52;75.20;101122.41;2005151;28;2724260;-78
2023/01/11 00:53:51;;;;;;;;;2.00;0.83;;;;;13.52;74.93;101114.47;1981695;28;2737791;-78
2023/01/11 00:55:04;;;;;;;;;1.00;1.00;;;;;13.52;75.39;101119.75;1983196;28;2720059;-78
2023/01/11 00:56:18;;;;;;;;;1.00;1.00;;;;;13.51;75.33;101110.97;2009085;28;2725293;-78
2023/01/11 00:57:31;;;;;;;;;0.00;0.00;;;;;13.50;75.56;101107.50;2013008;28;2727357;-78
2023/01/11 00:58:44;;;;;;;;;0.83;0.83;;;;;13.51;75.21;101110.97;2013168;28;2733598;-78
2023/01/11 00:59:57;;;;;;;;;2.00;0.33;;;;;13.52;75.50;101103.91;2012397;28;2725282;-78
2023/01/11 01:01:10;;;;;;;;;1.50;0.83;;;;;13.52;75.67;101096.00;1983238;28;2725262;-78
2023/01/11 01:02:24;;;;;;;;;1.17;1.17;;;;;13.51;75.64;101108.34;2004958;28;2731511;-78
2023/01/11 01:03:37;;;;;;;;;2.33;1.00;;;;;13.50;75.49;101096.94;1981343;28;2737781;-78
2023/01/11 01:04:50;;;;;;;;;1.00;0.00;;;;;13.49;75.81;101089.91;2006082;28;2722170;-78
2023/01/11 01:06:03;;;;;;;;;0.67;0.67;;;;;13.48;75.25;101088.19;1990885;28;2727342;-78
2023/01/11 01:07:16;;;;;;;;;1.00;0.00;;;;;13.49;75.55;101095.19;2013733;28;2723180;-78
2023/01/11 01:08:30;;;;;;;;;0.00;0.00;;;;;13.48;75.76;101088.19;1987052;28;2733630;-79
2023/01/11 01:09:43;;;;;;;;;2.00;0.67;;;;;13.47;75.46;101086.50;1989834;28;2726316;-78
2023/01/11 01:10:56;;;;;;;;;0.00;0.00;;;;;13.48;75.61;101101.38;1989684;28;2725278;-78
2023/01/11 01:12:09;;;;;;;;;0.33;0.33;;;;;13.47;75.68;101102.34;2012961;28;2725251;-78
2023/01/11 01:14:54;;;;;;;;;1.00;1.00;;;;;13.47;75.82;101091.78;2014006;28;2725255;-78
2023/01/11 01:16:07;;;;;;;;;0.00;0.00;;;;;13.48;75.73;101100.56;2008413;28;2725301;-78
2023/01/11 01:17:20;;;;;;;;;2.17;0.33;;;;;13.48;75.58;101103.19;1996450;28;2723199;-78
2023/01/11 01:18:34;;;;;;;;;1.17;0.00;;;;;13.47;75.58;101104.97;2020448;28;2727377;-78
2023/01/11 01:19:47;;;;;;;;;0.83;0.00;;;;;13.46;75.69;101090.03;2014795;28;2724329;-78
2023/01/11 01:21:00;;;;;;;;;0.00;0.00;;;;;13.46;75.92;101097.97;2014919;28;2722176;-78
2023/01/11 01:22:13;;;;;;;;;0.00;0.00;;;;;13.48;75.98;101093.47;2014624;28;2731540;-78
2023/01/11 01:23:26;;;;;;;;;0.17;0.17;;;;;13.47;75.58;101089.13;2014820;28;2724232;-78
2023/01/11 01:24:40;;;;;;;;;0.33;0.17;;;;;13.48;75.71;101103.19;2014688;28;2725329;-78
2023/01/11 01:25:53;;;;;;;;;0.50;0.50;;;;;13.47;75.90;101106.75;1989963;28;2731510;-78
2023/01/11 01:27:06;;;;;;;;;0.00;0.00;;;;;13.47;75.95;101091.78;2013255;28;2733607;-78
2023/01/11 01:28:21;;;;;;;;;1.17;0.00;;;;;13.46;75.70;101095.31;2014841;28;2725282;-78
2023/01/11 01:29:34;;;;;;;;;1.67;0.50;;;;;13.46;75.73;101095.31;1987195;28;2725274;-78
2023/01/11 01:30:50;;;;;;;;;1.67;0.17;;;;;13.46;76.24;101095.31;1990833;28;2731586;-78
2023/01/11 01:32:03;;;;;;;;;1.00;0.00;;;;;13.45;76.26;101093.63;2014400;28;2727342;-78
2023/01/11 01:33:17;;;;;;;;;0.00;0.00;;;;;13.45;76.01;101093.63;1990477;28;2726300;-78
2023/01/11 01:34:30;;;;;;;;;0.00;0.00;;;;;13.44;76.07;101086.59;2014308;28;2718014;-78
2023/01/11 01:35:43;;;;;;;;;2.00;1.00;;;;;13.44;76.05;101081.31;1991394;28;2737762;-78
2023/01/11 01:36:56;;;;;;;;;0.00;0.00;;;;;13.44;76.02;101075.16;2014056;28;2725333;-78
2023/01/11 01:38:09;;;;;;;;;0.00;0.00;;;;;13.45;76.02;101082.19;2013582;28;2730550;-78
2023/01/11 01:39:23;;;;;;;;;0.00;0.00;;;;;13.45;76.01;101075.13;1991937;28;2733939;-78
2023/01/11 01:40:47;;;;;;;;;0.00;0.00;;;;;13.45;76.11;101085.69;2007087;28;2731524;-78
2023/01/11 01:42:00;;;;;;;;;2.33;0.00;;;;;13.44;76.21;101076.03;2006706;28;2731535;-78
2023/01/11 01:43:16;;;;;;;;;1.00;0.17;;;;;13.45;76.09;101069.84;1983559;28;2729433;-78
2023/01/11 01:45:11;;;;;;;;;0.00;0.00;;;;;13.43;75.97;101063.78;2006671;28;2733655;-78
2023/01/11 01:46:30;;;;;;;;;0.50;0.00;;;;;13.41;76.34;101070.88;1987692;28;2723187;-77
2023/01/11 01:47:53;;;;;;;;;0.00;0.00;;;;;13.41;76.46;101070.88;2013832;28;2725272;-78
2023/01/11 01:49:11;;;;;;;;;2.00;0.00;;;;;13.40;76.47;101069.16;1984243;28;2725255;-78
2023/01/11 01:50:30;;;;;;;;;0.00;0.00;;;;;13.41;76.46;101062.94;2014408;28;2725337;-78
2023/01/11 01:51:56;;;;;;;;;0.00;0.00;;;;;13.40;76.32;101066.53;1996837;28;2725282;-78
2023/01/11 01:53:21;;;;;;;;;0.17;0.00;;;;;13.41;76.17;101064.75;2006221;28;2728387;-77
2023/01/11 01:54:41;;;;;;;;;0.00;0.00;;;;;13.42;76.31;101066.47;1990195;28;2731515;-78
2023/01/11 01:55:59;;;;;;;;;0.00;0.00;;;;;13.43;76.31;101065.56;1998584;28;2733602;-78
2023/01/11 01:57:21;;;;;;;;;0.17;0.00;;;;;13.42;76.36;101059.41;1996078;28;2731508;-77
2023/01/11 01:58:44;;;;;;;;;0.00;0.00;;;;;13.41;76.46;101060.31;1982901;28;2731564;-78
2023/01/11 02:00:02;;;;;;;;;0.00;0.00;;;;;13.43;76.32;101066.41;2000657;28;2731533;-77
2023/01/11 02:02:49;;;;;;;;;0.00;0.00;;;;;13.40;76.57;101063.88;2014240;28;2731592;-77
2023/01/11 02:04:08;;;;;;;;;0.00;0.00;;;;;13.39;76.35;101063.03;1991667;28;2729410;-78
2023/01/11 02:05:22;;;;;;;;;0.33;0.33;;;;;13.38;76.75;101058.66;2020945;28;2724229;-78
2023/01/11 02:06:36;;;;;;;;;0.00;0.00;;;;;13.38;76.48;101065.72;1995402;28;2723175;-78
2023/01/11 02:07:50;;;;;;;;;0.00;0.00;;;;;13.38;76.64;101061.28;1994898;28;2725274;-78
2023/01/11 02:09:42;;;;;;;;;0.00;0.00;;;;;13.39;76.29;101064.78;1997478;28;2733614;-78
2023/01/11 02:10:56;;;;;;;;;0.00;0.00;;;;;13.39;76.70;101062.16;1984646;28;2691927;-78
2023/01/11 02:12:10;;;;;;;;;0.00;0.00;;;;;13.41;76.36;101059.47;2006240;28;2729433;-78
2023/01/11 02:13:24;;;;;;;;;0.00;0.00;;;;;13.40;76.47;101063.88;1983584;28;2733603;-77
2023/01/11 02:14:40;;;;;;;;;1.00;0.00;;;;;13.41;76.32;101070.03;1991612;28;2731512;-78
2023/01/11 02:16:06;;;;;;;;;1.00;0.00;;;;;13.40;76.47;101058.63;1990883;28;2733639;-78
2023/01/11 02:17:20;;;;;;;;;1.17;0.00;;;;;13.43;76.18;101076.13;2014043;28;2724237;-78
2023/01/11 02:18:35;;;;;;;;;2.00;0.00;;;;;13.43;76.45;101060.28;1990642;28;2727365;-78
2023/01/11 02:20:13;;;;;;;;;0.50;0.00;;;;;13.44;76.48;101078.69;2014624;28;2725547;-78
2023/01/11 02:21:52;;;;;;;;;0.00;0.00;;;;;13.43;76.46;101062.91;1983769;28;2728383;-77
2023/01/11 02:23:05;;;;;;;;;0.00;0.00;;;;;13.44;76.56;101068.13;1984024;28;2727331;-78
2023/01/11 02:24:30;;;;;;;;;0.00;0.00;;;;;13.45;76.40;101066.34;1981746;28;2722150;-78
2023/01/11 02:25:53;;;;;;;;;0.00;0.00;;;;;13.46;76.50;101068.91;1983735;28;2725282;-78
2023/01/11 02:27:24;;;;;;;;;0.33;0.00;;;;;13.46;76.70;101062.75;1989286;28;2733682;-78
2023/01/11 02:28:55;;;;;;;;;0.00;0.00;;;;;13.47;76.49;101069.78;2011077;28;2727338;-78
2023/01/11 02:30:12;;;;;;;;;0.00;0.00;;;;;13.46;76.37;101063.63;2012599;28;2731517;-78
2023/01/11 02:31:28;;;;;;;;;0.00;0.00;;;;;13.47;76.40;101061.84;1991904;28;2729461;-78
2023/01/11 02:32:53;;;;;;;;;0.67;0.00;;;;;13.47;76.53;101065.38;1983592;28;2729468;-78
2023/01/11 02:34:33;;;;;;;;;0.33;0.00;;;;;13.46;76.78;101055.72;1984286;28;2721108;-78
2023/01/11 02:36:01;;;;;;;;;0.17;0.00;;;;;13.46;76.75;101063.63;2006164;28;2725259;-78
2023/01/11 02:37:26;;;;;;;;;0.00;0.00;;;;;13.47;76.77;101064.50;2006702;28;2724217;-77
2023/01/11 02:38:54;;;;;;;;;1.00;0.00;;;;;13.45;76.47;101061.94;2010342;28;2722164;-78
2023/01/11 02:40:23;;;;;;;;;0.00;0.00;;;;;13.46;76.38;101053.06;2006855;28;2724216;-78
2023/01/11 02:45:41;;;;;;;;;0.17;0.00;;;;;13.48;76.36;101053.03;2011110;28;2725290;-78
2023/01/11 02:47:03;;;;;;;;;0.00;0.00;;;;;13.49;76.73;101042.41;2013537;28;2728448;-78
2023/01/11 02:48:35;;;;;;;;;1.00;0.00;;;;;13.49;76.50;101047.69;1996336;28;2725598;-78
2023/01/11 02:50:17;;;;;;;;;0.00;0.00;;;;;13.49;76.36;101045.03;2014582;28;2723636;-78
2023/01/11 02:51:36;;;;;;;;;0.00;0.00;;;;;13.51;76.47;101050.25;2012659;28;2729441;-78
2023/01/11 02:53:04;;;;;;;;;0.00;0.00;;;;;13.52;76.63;101048.47;2013420;28;2724265;-78
2023/01/11 02:54:20;;;;;;;;;0.00;0.00;;;;;13.52;76.42;101041.41;2010329;28;2727413;-78
2023/01/11 02:55:41;;;;;;;;;0.00;0.00;;;;;13.53;76.32;101050.19;2013119;28;2725640;-78
2023/01/11 02:56:59;;;;;;;;;0.00;0.00;;;;;13.53;76.36;101042.28;2013413;28;2727344;-78
2023/01/11 02:58:14;;;;;;;;;0.00;0.00;;;;;13.54;76.26;101051.91;2013930;28;2721112;-78
2023/01/11 02:59:31;;;;;;;;;0.00;0.00;;;;;13.53;76.32;101039.63;2014218;28;2723174;-78
2023/01/11 03:00:46;;;;;;;;;0.00;0.00;;;;;13.54;76.37;101054.53;2012029;28;2725303;-78
2023/01/11 03:01:59;;;;;;;;;0.00;0.00;;;;;13.53;76.34;101053.66;1984426;28;2708607;-78
2023/01/11 03:03:14;;;;;;;;;0.00;0.00;;;;;13.55;76.51;101040.44;2007134;28;2721096;-78
2023/01/11 03:04:30;;;;;;;;;0.00;0.00;;;;;13.55;76.43;101040.44;1983790;28;2723172;-78
2023/01/11 03:06:01;;;;;;;;;0.50;0.00;;;;;13.56;76.56;101043.03;2006456;28;2725259;-78
2023/01/11 03:07:33;;;;;;;;;0.00;0.00;;;;;13.56;76.29;101050.06;2006514;28;2714826;-78
2023/01/11 03:09:15;;;;;;;;;0.00;0.00;;;;;13.57;76.20;101039.47;2008003;28;2704429;-78
2023/01/11 03:10:45;;;;;;;;;0.00;0.00;;;;;13.57;76.30;101033.31;2013993;28;2721153;-78
2023/01/11 03:13:38;;;;;;;;;0.00;0.00;;;;;13.58;76.50;101037.69;2006470;28;2712790;-78
2023/01/11 03:15:13;;;;;;;;;0.00;0.00;;;;;13.57;76.53;101043.91;2011082;28;2701348;-78
2023/01/11 03:16:34;;;;;;;;;0.00;0.00;;;;;13.57;76.53;101049.19;2013999;28;2720049;-78
2023/01/11 03:18:11;;;;;;;;;0.00;0.00;;;;;13.55;76.62;101037.78;2014462;28;2714850;-78
2023/01/11 03:19:56;;;;;;;;;0.00;0.00;;;;;13.55;76.23;101036.00;2010618;28;2708608;-78
2023/01/11 03:21:26;;;;;;;;;0.00;0.00;;;;;13.57;76.68;101044.75;2006520;28;2725700;-78
2023/01/11 03:23:00;;;;;;;;;0.00;0.00;;;;;13.56;76.56;101042.13;2013307;28;2725286;-78
2023/01/11 03:24:46;;;;;;;;;0.00;0.00;;;;;13.57;76.27;101038.63;2015153;28;2706505;-78
2023/01/11 03:26:28;;;;;;;;;0.00;0.00;;;;;13.57;76.33;101042.13;2012723;28;2724470;-78
2023/01/11 03:28:12;;;;;;;;;0.00;0.00;;;;;13.59;76.53;101042.03;2011353;28;2714861;-78
2023/01/11 03:29:29;;;;;;;;;0.00;0.00;;;;;13.58;76.31;101035.91;2010863;28;2722138;-78
2023/01/11 03:30:56;;;;;;;;;0.00;0.00;;;;;13.60;76.46;101051.69;2015433;28;2722165;-78
2023/01/11 03:32:12;;;;;;;;;0.00;0.00;;;;;13.61;76.42;101045.47;1985532;28;2727493;-78
2023/01/11 03:33:36;;;;;;;;;0.00;0.00;;;;;13.62;76.52;101036.66;2013876;28;2725270;-78
2023/01/11 03:35:04;;;;;;;;;0.00;0.00;;;;;13.63;76.25;101048.06;2006696;28;2722227;-78
2023/01/11 03:36:31;;;;;;;;;0.00;0.00;;;;;13.63;76.31;101046.28;2009162;28;2724222;-78
2023/01/11 03:37:49;;;;;;;;;0.00;0.00;;;;;13.64;76.29;101047.13;1998094;28;2725266;-77
2023/01/11 03:39:28;;;;;;;;;0.00;0.00;;;;;13.64;76.30;101044.50;2019142;28;2725298;-78
2023/01/11 03:40:47;;;;;;;;;0.00;0.00;;;;;13.64;76.39;101049.78;1984467;28;2719017;-77
2023/01/11 03:42:04;;;;;;;;;0.00;0.00;;;;;13.64;76.44;101055.91;2014103;28;2727361;-78
2023/01/11 03:43:21;;;;;;;;;0.67;0.00;;;;;13.65;76.50;101046.22;1991178;28;2725254;-78
2023/01/11 03:44:42;;;;;;;;;0.00;0.00;;;;;13.64;76.35;101048.00;2014445;28;2713133;-78
2023/01/11 03:46:13;;;;;;;;;0.00;0.00;;;;;13.65;76.29;101052.38;2015147;28;2721119;-77
2023/01/11 03:47:29;;;;;;;;;0.00;0.00;;;;;13.64;76.42;101045.34;2013557;28;2728387;-78
2023/01/11 03:48:51;;;;;;;;;0.00;0.00;;;;;13.64;76.64;101048.00;1998504;28;2724247;-78
2023/01/11 03:50:10;;;;;;;;;0.00;0.00;;;;;13.64;76.83;101049.78;2018236;28;2724201;-78
2023/01/11 03:51:27;;;;;;;;;0.00;0.00;;;;;13.65;76.71;101052.38;1990274;28;2733611;-78
2023/01/11 03:52:42;;;;;;;;;0.00;0.00;;;;;13.66;76.43;101047.94;2015905;28;2703392;-78
2023/01/11 03:53:59;;;;;;;;;0.00;0.00;;;;;13.65;76.55;101049.72;2007631;28;2720057;-78
2023/01/11 03:55:15;;;;;;;;;0.00;0.00;;;;;13.64;76.50;101055.91;2006679;28;2721112;-78
2023/01/11 03:56:39;;;;;;;;;0.00;0.00;;;;;13.66;76.73;101059.34;2006658;28;2713419;-78
2023/01/11 03:57:54;;;;;;;;;0.00;0.00;;;;;13.66;76.80;101058.50;2014555;28;2721120;-78
2023/01/11 03:59:07;;;;;;;;;0.00;0.00;;;;;13.66;76.62;101059.34;2013715;28;2725262;-78
2023/01/11 04:00:21;;;;;;;;;0.00;0.00;;;;;13.66;76.79;101058.50;2014630;28;2714858;-78
2023/01/11 04:01:36;;;;;;;;;0.00;0.00;;;;;13.66;76.50;101054.06;2013351;28;2725262;-78
2023/01/11 04:02:52;;;;;;;;;0.00;0.00;;;;;13.66;76.30;101055.84;2013235;28;2721093;-78
2023/01/11 04:04:05;;;;;;;;;0.00;0.00;;;;;13.65;76.45;101052.38;2021399;28;2716937;-78
2023/01/11 04:05:19;;;;;;;;;0.17;0.00;;;;;13.66;76.46;101047.94;2020564;28;2702331;-78
2023/01/11 04:06:35;;;;;;;;;0.00;0.00;;;;;13.65;76.48;101056.78;2017065;28;2714937;-78
2023/01/11 04:07:48;;;;;;;;;0.00;0.00;;;;;13.65;76.53;101047.09;2014515;28;2707535;-78
2023/01/11 04:09:02;;;;;;;;;0.00;0.00;;;;;13.65;76.51;101055.00;2015601;28;2692001;-78
2023/01/11 04:10:16;;;;;;;;;0.00;0.00;;;;;13.65;76.93;101052.38;2021818;28;2723180;-77
2023/01/11 04:11:29;;;;;;;;;0.00;0.00;;;;;13.64;76.87;101050.63;1996855;28;2725270;-78
2023/01/11 04:12:46;;;;;;;;;0.00;0.00;;;;;13.64;76.81;101061.19;1991381;28;2724251;-79
2023/01/11 04:14:00;;;;;;;;;0.00;0.00;;;;;13.63;76.92;101054.19;2012241;28;2725254;-78
2023/01/11 04:15:14;;;;;;;;;0.00;0.00;;;;;13.64;76.76;101053.28;2013947;28;2720074;-78
2023/01/11 04:16:27;;;;;;;;;0.00;0.00;;;;;13.64;76.75;101055.91;2012889;28;2712755;-78
2023/01/11 04:17:41;;;;;;;;;1.00;0.00;;;;;13.64;76.70;101053.28;2013850;28;2725279;-78
2023/01/11 04:18:54;;;;;;;;;0.00;0.00;;;;;13.65;76.45;101059.44;1990767;28;2726339;-78
2023/01/11 04:20:09;;;;;;;;;0.00;0.00;;;;;13.65;76.86;101062.06;1999394;28;2710703;-78
2023/01/11 04:21:22;;;;;;;;;0.00;0.00;;;;;13.65;76.70;101056.78;2013971;28;2721131;-78
2023/01/11 04:22:36;;;;;;;;;0.00;0.00;;;;;13.66;77.09;101056.72;2008603;28;2714838;-78
2023/01/11 04:23:49;;;;;;;;;0.00;0.00;;;;;13.66;76.75;101054.06;2005996;28;2718997;-78
2023/01/11 04:25:02;;;;;;;;;0.00;0.00;;;;;13.66;76.77;101054.06;2014324;28;2721115;-78
2023/01/11 04:26:16;;;;;;;;;0.33;0.00;;;;;13.66;76.41;101059.34;2014594;28;2712773;-78
2023/01/11 04:27:29;;;;;;;;;0.00;0.00;;;;;13.67;76.99;101054.94;2013961;28;2725636;-78
2023/01/11 04:28:43;;;;;;;;;0.00;0.00;;;;;13.67;76.90;101063.72;2013663;28;2722149;-78
2023/01/11 04:29:56;;;;;;;;;0.00;0.00;;;;;13.68;76.95;101065.44;2013588;28;2725311;-78
2023/01/11 04:31:09;;;;;;;;;0.00;0.00;;;;;13.69;76.80;101069.81;1991035;28;2712755;-78
2023/01/11 04:32:23;;;;;;;;;0.00;0.00;;;;;13.68;76.67;101065.44;2014098;28;2725278;-78
2023/01/11 04:33:36;;;;;;;;;0.33;0.00;;;;;13.68;76.66;101068.06;1990503;28;2708593;-78
2023/01/11 04:34:49;;;;;;;;;0.00;0.00;;;;;13.68;76.88;101067.25;2012296;28;2727341;-78
2023/01/11 04:36:07;;;;;;;;;0.00;0.00;;;;;13.69;76.73;101069.81;2009232;28;2727381;-78
2023/01/11 04:37:20;;;;;;;;;0.00;0.00;;;;;13.69;76.94;101061.88;2013916;28;2723191;-78
2023/01/11 04:38:34;;;;;;;;;0.00;0.00;;;;;13.70;76.63;101068.03;1991201;28;2712835;-78
2023/01/11 04:39:47;;;;;;;;;0.00;0.00;;;;;13.70;76.67;101076.78;2013943;28;2725290;-78
2023/01/11 04:42:32;;;;;;;;;0.00;0.00;;;;;13.70;76.77;101090.00;2011019;28;2710707;-78
2023/01/11 04:43:45;;;;;;;;;0.00;0.00;;;;;13.69;76.75;101080.38;1997835;28;2706581;-78
2023/01/11 04:44:58;;;;;;;;;0.00;0.00;;;;;13.68;76.43;101081.28;2020553;28;2712814;-78
2023/01/11 04:46:12;;;;;;;;;0.83;0.00;;;;;13.67;76.69;101090.16;2024422;28;2714870;-78
2023/01/11 04:47:25;;;;;;;;;0.00;0.00;;;;;13.67;76.55;101090.16;2015858;28;2697131;-78
2023/01/11 04:48:39;;;;;;;;;0.00;0.00;;;;;13.65;76.44;101089.34;2016642;28;2721132;-78
2023/01/11 04:49:53;;;;;;;;;0.00;0.00;;;;;13.64;76.72;101098.19;2017988;28;2699230;-78
2023/01/11 04:51:07;;;;;;;;;0.00;0.00;;;;;13.65;76.56;101091.13;2012357;28;2704433;-78
2023/01/11 04:52:20;;;;;;;;;0.00;0.00;;;;;13.66;76.61;101096.34;2009406;28;2708585;-78
2023/01/11 04:53:34;;;;;;;;;1.00;0.00;;;;;13.65;76.66;101094.63;2016471;28;2712817;-78
2023/01/11 04:54:48;;;;;;;;;0.00;0.00;;;;;13.66;76.60;101095.47;2022317;28;2706498;-78
2023/01/11 04:56:03;;;;;;;;;0.00;0.00;;;;;13.66;76.64;101093.69;2016786;28;2712785;-78
2023/01/11 04:57:16;;;;;;;;;0.00;0.00;;;;;13.66;77.07;101085.78;2018686;28;2691915;-78
2023/01/11 04:58:30;;;;;;;;;0.00;0.00;;;;;13.65;76.66;101094.63;2015961;28;2718997;-78
2023/01/11 04:59:46;;;;;;;;;0.00;0.00;;;;;13.65;76.79;101094.63;2017438;28;2698191;-77
2023/01/11 05:00:59;;;;;;;;;0.00;0.00;;;;;13.66;76.97;101104.25;2016289;28;2708620;-77
2023/01/11 05:02:16;;;;;;;;;0.00;0.00;;;;;13.67;76.87;101095.44;2017307;28;2700786;-78
2023/01/11 05:03:31;;;;;;;;;0.00;0.00;;;;;13.67;76.52;101108.63;1997181;28;2701324;-78
2023/01/11 05:04:44;;;;;;;;;0.00;0.00;;;;;13.67;76.63;101108.63;2016413;28;2708617;-77
2023/01/11 05:05:58;;;;;;;;;0.00;0.00;;;;;13.68;76.56;101110.34;2016463;28;2721553;-77
2023/01/11 05:07:12;;;;;;;;;0.00;0.00;;;;;13.68;76.52;101118.25;2017704;28;2704446;-77
2023/01/11 05:08:27;;;;;;;;;0.00;0.00;;;;;13.68;76.57;101112.97;2017180;28;2706530;-77
2023/01/11 05:09:40;;;;;;;;;0.33;0.00;;;;;13.68;76.33;101120.06;2016761;28;2714842;-78
2023/01/11 05:10:56;;;;;;;;;0.00;0.00;;;;;13.66;76.00;101130.66;2015265;28;2725782;-78
2023/01/11 05:12:09;;;;;;;;;0.00;0.00;;;;;13.65;76.13;101125.47;2010566;28;2691930;-78
2023/01/11 05:13:41;;;;;;;;;0.00;0.00;;;;;13.62;76.07;101126.44;2016682;28;2702361;-77
2023/01/11 05:14:55;;;;;;;;;0.00;0.00;;;;;13.59;75.95;101131.84;2013524;28;2699250;-78
2023/01/11 05:16:11;;;;;;;;;0.00;0.00;;;;;13.58;75.98;101140.69;2020640;28;2700256;-77
2023/01/11 05:17:25;;;;;;;;;0.00;0.00;;;;;13.57;75.93;101134.56;2016439;28;2712764;-77
2023/01/11 05:18:43;;;;;;;;;0.00;0.00;;;;;13.58;75.76;101140.69;2016925;28;2706520;-78
2023/01/11 05:19:56;;;;;;;;;0.00;0.00;;;;;13.56;75.84;101139.84;2017512;28;2707546;-77
2023/01/11 05:21:12;;;;;;;;;0.00;0.00;;;;;13.54;75.65;101142.56;2014173;28;2714851;-77
2023/01/11 05:22:25;;;;;;;;;0.00;0.00;;;;;13.54;75.81;101141.69;2014589;28;2725258;-77
2023/01/11 05:23:40;;;;;;;;;0.00;0.00;;;;;13.52;75.51;101146.16;1986536;28;2703416;-78
2023/01/11 05:24:53;;;;;;;;;1.00;1.00;;;;;13.49;75.48;101136.59;2008776;28;2725766;-78
2023/01/11 05:26:10;;;;;;;;;0.00;0.00;;;;;13.47;75.33;101139.31;2008255;28;2723179;-78
2023/01/11 05:27:23;;;;;;;;;0.00;0.00;;;;;13.46;75.33;101142.84;2009553;28;2713130;-77
2023/01/11 05:28:36;;;;;;;;;0.00;0.00;;;;;13.43;75.26;101140.34;2009360;28;2703419;-77
2023/01/11 05:29:49;;;;;;;;;0.00;0.00;;;;;13.43;75.26;101145.63;2012649;28;2702342;-77
2023/01/11 05:31:02;;;;;;;;;0.00;0.00;;;;;13.41;75.30;101147.44;2014887;28;2726319;-78
2023/01/11 05:32:16;;;;;;;;;0.00;0.00;;;;;13.39;74.99;101146.66;2016681;28;2721092;-77
2023/01/11 05:33:29;;;;;;;;;0.00;0.00;;;;;13.38;75.09;101150.22;1992626;28;2722141;-77
2023/01/11 05:34:42;;;;;;;;;0.00;0.00;;;;;13.38;74.47;101171.34;2016161;28;2722162;-78
2023/01/11 05:36:00;;;;;;;;;0.17;0.00;;;;;13.34;75.00;101173.22;1993367;28;2719013;-78
2023/01/11 05:37:13;;;;;;;;;0.00;0.00;;;;;13.30;74.59;101181.31;2023183;28;2722192;-77
2023/01/11 05:38:27;;;;;;;;;0.50;0.00;;;;;13.26;74.84;101184.06;2021352;28;2721084;-77
2023/01/11 05:39:40;;;;;;;;;0.00;0.00;;;;;13.22;74.93;101189.53;2015373;28;2714838;-78
2023/01/11 05:40:58;;;;;;;;;0.00;0.00;;;;;13.18;74.75;101191.44;2015232;28;2725339;-77
2023/01/11 05:42:12;;;;;;;;;0.33;0.00;;;;;13.13;74.72;101196.88;2017439;28;2725339;-78
2023/01/11 05:43:26;;;;;;;;;0.00;0.00;;;;;13.11;75.12;101201.31;1998846;28;2720086;-78
2023/01/11 05:46:11;;;;;;;;;2.83;0.00;;;;;13.04;74.47;101202.47;2025116;28;2731512;-79
2023/01/11 05:47:24;;;;;;;;;1.00;0.00;;;;;13.00;74.38;101204.38;2008358;28;2722154;-78
2023/01/11 05:48:37;;;;;;;;;0.50;0.00;;;;;12.98;74.47;101218.53;1985321;28;2721447;-78
2023/01/11 05:49:51;;;;;;;;;0.00;0.00;;;;;12.96;74.62;101205.41;2018468;28;2725258;-77
2023/01/11 05:51:04;;;;;;;;;0.00;0.00;;;;;12.94;74.90;101212.47;1998215;28;2723200;-77
2023/01/11 05:52:17;;;;;;;;;0.17;0.00;;;;;12.93;74.75;101205.50;2023306;28;2723171;-77
2023/01/11 05:53:30;;;;;;;;;0.33;0.33;;;;;12.92;74.45;101204.63;2021611;28;2731519;-78
2023/01/11 05:54:43;;;;;;;;;1.00;0.00;;;;;12.92;74.46;101211.69;1991848;28;2728395;-78
2023/01/11 05:55:57;;;;;;;;;0.83;0.83;;;;;12.89;74.79;101211.81;1991150;28;2737785;-77
2023/01/11 05:57:10;;;;;;;;;0.00;0.00;;;;;12.88;75.46;101210.06;1991257;28;2727337;-78
2023/01/11 05:58:25;;;;;;;;;0.00;0.00;;;;;12.87;75.23;101208.34;2007509;28;2733612;-77
2023/01/11 05:59:39;;;;;;;;;0.00;0.00;;;;;12.87;74.82;101210.97;2005920;28;2727349;-78
2023/01/11 06:00:54;;;;;;;;;0.00;0.00;;;;;12.86;74.86;101199.59;1987723;28;2729457;-77
2023/01/11 06:02:07;;;;;;;;;0.83;0.00;;;;;12.86;74.62;101204.00;1983194;28;2733588;-77
2023/01/11 06:03:23;;;;;;;;;1.00;0.67;;;;;12.83;74.20;101192.66;2013147;28;2728410;-77
2023/01/11 06:04:36;;;;;;;;;0.00;0.00;;;;;12.81;74.48;101205.03;2013124;28;2701321;-78
2023/01/11 06:05:51;;;;;;;;;0.83;0.00;;;;;12.79;74.35;101209.47;2005330;28;2724205;-78
2023/01/11 06:07:05;;;;;;;;;1.17;0.00;;;;;12.77;74.64;101215.72;2014583;28;2730502;-77
2023/01/11 06:08:19;;;;;;;;;2.67;0.00;;;;;12.74;74.17;101224.59;1991481;28;2730466;-78
2023/01/11 06:09:32;;;;;;;;;0.67;0.33;;;;;12.72;74.37;101226.44;1990912;28;2731528;-79
2023/01/11 06:10:55;;;;;;;;;2.00;0.00;;;;;12.70;74.49;101233.53;1989944;28;2727385;-78